Othello — LXOD — position and weather

sailwx.info

Track history (hours):
 
Tides and Currents Weather Stations Pressure Air Temp Water Temp Dewpoint Dewpoint Depression Visibility Wind Speed Wind Dir Waves Ship Positions

Othello

Last reported at 2017-Aug-16 05:54 UTC. Time now 2017-Aug-17 03:41 UTC.
Position N 41°06' E 001°14'.

Length 104 m; draft 7.7 m.

Type: Tanker. MMSI: 253279000.

Date/timePositionNaut miles runAvg speedWind from/ knotsBaromVisibWave heightAir tempDewpointWater temp
2017-Aug-16 05:54N 41°06' E 001°14'0 0.8
2017-Aug-16 05:25N 41°06' E 001°13'2 4.9
2017-Aug-16 05:00N 41°04' E 001°12'5 9.8
2017-Aug-16 04:30N 40°59' E 001°10'611.3
2017-Aug-16 04:00N 40°54' E 001°09'611.1
2017-Aug-16 03:29N 40°48' E 001°07'611.4
2017-Aug-16 02:59N 40°42' E 001°05'611.6
2017-Aug-16 02:29N 40°37' E 001°03'611.4
2017-Aug-16 02:00N 40°31' E 001°02'611.6
2017-Aug-16 01:30N 40°26' E 001°00'611.6
2017-Aug-16 01:00N 40°20' E 000°59'611.6
2017-Aug-16 00:30N 40°14' E 000°58'611.6
2017-Aug-16 00:00N 40°09' E 000°56'611.6
2017-Aug-15 23:30N 40°03' E 000°55'611.5
2017-Aug-15 23:00N 39°57' E 000°54'611.4
2017-Aug-15 22:30N 39°51' E 000°53'611.4
2017-Aug-15 22:00N 39°46' E 000°50'611.3
2017-Aug-15 21:30N 39°41' E 000°48'1411.1
2017-Aug-15 20:15N 39°27' E 000°44'1410.5
2017-Aug-15 18:55N 39°14' E 000°39'511.2
2017-Aug-15 18:30N 39°09' E 000°38'611.0
2017-Aug-15 18:00N 39°04' E 000°36'9211.7
2017-Aug-15 10:07N 37°44' W 000°22'111.6
2017-Aug-15 10:00N 37°43' W 000°22'612.4
2017-Aug-15 09:30N 37°37' W 000°26'612.7
2017-Aug-15 09:00N 37°32' W 000°31'813.0
2017-Aug-15 08:25N 37°27' W 000°38'513.4
2017-Aug-15 08:00N 37°24' W 000°43'712.8
2017-Aug-15 07:28N 37°19' W 000°50'612.9
2017-Aug-15 06:59N 37°15' W 000°56'613.0
2017-Aug-15 06:29N 37°11' W 001°02'21511.7
2017-Aug-14 12:02N 35°56' W 005°13'011.8
2017-Aug-14 12:00N 35°56' W 005°14'4 8.6
2017-Aug-14 11:30N 35°54' W 005°19'1 1.5
2017-Aug-14 10:59N 35°54' W 005°19'0 0.0
2017-Aug-14 10:29N 35°54' W 005°19'0 0.0
2017-Aug-14 09:59N 35°54' W 005°19'0 0.0
2017-Aug-14 09:29N 35°54' W 005°19'0 0.0
2017-Aug-14 08:59N 35°54' W 005°19'0 0.0
2017-Aug-14 08:29N 35°54' W 005°19'0 0.0
2017-Aug-14 07:59N 35°54' W 005°19'0 0.0
2017-Aug-14 07:29N 35°54' W 005°19'0 0.0
2017-Aug-14 07:01N 35°54' W 005°19'0 0.0
2017-Aug-14 06:30N 35°54' W 005°19'0 0.8
2017-Aug-14 06:00N 35°54' W 005°19'1 2.9
2017-Aug-14 05:30N 35°55' W 005°20'510.4
2017-Aug-14 05:00N 35°58' W 005°25'712.5
2017-Aug-14 04:27N 35°56' W 005°33'711.3
2017-Aug-14 03:51N 35°55' W 005°42'310.1
2017-Aug-14 03:31N 35°54' W 005°46'511.0
2017-Aug-14 03:01N 35°54' W 005°53'12611.4
2017-Aug-13 15:56N 36°18' W 008°26'3411.6
2017-Aug-13 12:59N 36°27' W 009°07'611.7
2017-Aug-13 12:27N 36°29' W 009°14'511.5
2017-Aug-13 11:59N 36°31' W 009°20'611.8
2017-Aug-13 11:28N 36°35' W 009°26'611.7
2017-Aug-13 10:55N 36°40' W 009°31'511.6
2017-Aug-13 10:30N 36°43' W 009°35'611.1
2017-Aug-13 09:59N 36°49' W 009°38'611.8
2017-Aug-13 09:30N 36°54' W 009°39'611.9
2017-Aug-13 08:59N 37°00' W 009°41'611.8
2017-Aug-13 08:30N 37°06' W 009°43'611.3
2017-Aug-13 08:00N 37°12' W 009°44'611.4
2017-Aug-13 07:30N 37°17' W 009°46'611.7
2017-Aug-13 07:00N 37°22' W 009°49'611.3
2017-Aug-13 06:30N 37°28' W 009°51'611.6
2017-Aug-13 06:00N 37°33' W 009°52'611.8
2017-Aug-13 05:30N 37°39' W 009°53'611.8
2017-Aug-13 05:00N 37°45' W 009°55'611.8
2017-Aug-13 04:30N 37°51' W 009°56'611.7
2017-Aug-13 04:00N 37°57' W 009°58'611.4
2017-Aug-13 03:30N 38°02' W 009°59'611.3
2017-Aug-13 03:00N 38°08' W 010°01'611.4
2017-Aug-13 02:30N 38°13' W 010°03'611.3
2017-Aug-13 02:00N 38°19' W 010°05'611.7
2017-Aug-13 01:30N 38°24' W 010°07'612.1
2017-Aug-13 01:00N 38°30' W 010°08'611.4
2017-Aug-13 00:30N 38°36' W 010°10'611.6
2017-Aug-13 00:00N 38°42' W 010°11'612.0
2017-Aug-12 23:30N 38°48' W 010°11'611.9
2017-Aug-12 23:00N 38°54' W 010°11'612.4
2017-Aug-12 22:30N 38°60' W 010°11'612.1
2017-Aug-12 22:00N 39°06' W 010°11'612.8
2017-Aug-12 21:30N 39°12' W 010°11'612.3
2017-Aug-12 21:00N 39°18' W 010°11'612.0
2017-Aug-12 20:30N 39°24' W 010°11'612.1
2017-Aug-12 20:01N 39°30' W 010°11'612.2
2017-Aug-12 19:30N 39°36' W 010°11'612.5
2017-Aug-12 19:00N 39°43' W 010°11'612.4
2017-Aug-12 18:30N 39°49' W 010°12'612.3
2017-Aug-12 18:00N 39°55' W 010°12'612.2
2017-Aug-12 17:30N 40°01' W 010°11'611.8
2017-Aug-12 17:00N 40°07' W 010°11'612.0
2017-Aug-12 16:30N 40°13' W 010°11'611.9
2017-Aug-12 16:00N 40°19' W 010°11'612.1
2017-Aug-12 15:30N 40°25' W 010°12'612.2
2017-Aug-12 15:00N 40°31' W 010°12'612.2
2017-Aug-12 14:30N 40°37' W 010°12'612.3
2017-Aug-12 14:00N 40°43' W 010°11'612.4
2017-Aug-12 13:30N 40°50' W 010°11'612.2
2017-Aug-12 13:00N 40°56' W 010°11'612.0
2017-Aug-12 12:30N 41°02' W 010°12'612.2
2017-Aug-12 12:00N 41°08' W 010°12'612.1
2017-Aug-12 11:31N 41°14' W 010°12'612.2
2017-Aug-12 11:00N 41°20' W 010°11'912.1
2017-Aug-12 10:16N 41°29' W 010°11'312.3
2017-Aug-12 09:59N 41°32' W 010°11'612.5
2017-Aug-12 09:29N 41°39' W 010°11'1012.3
2017-Aug-12 08:42N 41°48' W 010°12'412.1
2017-Aug-12 08:21N 41°52' W 010°12'412.5
2017-Aug-12 08:00N 41°57' W 010°12'612.5
2017-Aug-12 07:30N 42°03' W 010°12'812.2
2017-Aug-12 06:52N 42°11' W 010°12'511.8
2017-Aug-12 06:25N 42°16' W 010°12'512.2
2017-Aug-12 06:00N 42°21' W 010°12'50012.2
2017-Aug-10 13:06N 49°32' W 004°08'214.3
2017-Aug-10 12:59N 49°33' W 004°05'714.0
2017-Aug-10 12:30N 49°36' W 003°56'714.0
2017-Aug-10 12:00N 49°40' W 003°47'713.5
2017-Aug-10 11:30N 49°43' W 003°38'713.0
2017-Aug-10 11:00N 49°47' W 003°29'612.4
2017-Aug-10 10:30N 49°50' W 003°21'612.0
2017-Aug-10 10:00N 49°53' W 003°13'611.5
2017-Aug-10 09:30N 49°55' W 003°05'611.1
2017-Aug-10 09:00N 49°58' W 002°58'510.7
2017-Aug-10 08:30N 50°00' W 002°50'510.7
2017-Aug-10 08:00N 50°02' W 002°42'2811.6
2017-Aug-10 05:36N 50°09' W 002°01'113.6
2017-Aug-10 05:31N 50°10' W 001°59'714.1
2017-Aug-10 05:00N 50°12' W 001°48'714.8
2017-Aug-10 04:30N 50°14' W 001°37'815.2
2017-Aug-10 04:00N 50°16' W 001°25'3915.1
2017-Aug-10 01:26N 50°26' W 000°27'613.3
2017-Aug-10 01:00N 50°27' W 000°18'612.8
2017-Aug-10 00:30N 50°29' W 000°09'612.1
2017-Aug-10 00:00N 50°30' E 000°01'611.7
2017-Aug-09 23:30N 50°32' E 000°10'611.1
2017-Aug-09 23:00N 50°33' E 000°18'510.7
2017-Aug-09 22:30N 50°35' E 000°26'510.7
2017-Aug-09 22:00N 50°36' E 000°34'611.0
2017-Aug-09 21:30N 50°40' E 000°41'611.7
2017-Aug-09 21:00N 50°44' E 000°48'612.5
2017-Aug-09 20:30N 50°48' E 000°55'712.4
2017-Aug-09 19:54N 50°53' E 001°04'512.1
2017-Aug-09 19:28N 50°55' E 001°12'612.9
2017-Aug-09 19:00N 50°59' E 001°18'713.4
2017-Aug-09 18:31N 51°04' E 001°26'714.3
2017-Aug-09 18:00N 51°08' E 001°35'713.3
2017-Aug-09 17:30N 51°12' E 001°44'612.6
2017-Aug-09 17:00N 51°17' E 001°50'612.2
2017-Aug-09 16:30N 51°22' E 001°55'510.1
2017-Aug-09 16:00N 51°25' E 002°02'713.1
2017-Aug-09 15:30N 51°23' E 002°11'611.4
2017-Aug-09 15:00N 51°21' E 002°20'510.9
2017-Aug-09 14:30N 51°22' E 002°28'510.9
2017-Aug-09 14:01N 51°23' E 002°37'510.1
2017-Aug-09 13:30N 51°22' E 002°45'611.3
2017-Aug-09 13:00N 51°23' E 002°54'612.4
2017-Aug-09 12:30N 51°25' E 003°03'612.3
2017-Aug-09 12:00N 51°25' E 003°13'612.5
2017-Aug-09 11:30N 51°25' E 003°23'612.7
2017-Aug-09 11:00N 51°26' E 003°33'510.2
2017-Aug-09 10:30N 51°26' E 003°41'612.8
2017-Aug-09 10:00N 51°21' E 003°48'612.2
2017-Aug-09 09:30N 51°24' E 003°57'3 6.7
2017-Aug-09 09:00N 51°23' E 004°02'613.0
2017-Aug-09 08:30N 51°23' E 004°13'713.8
2017-Aug-09 08:00N 51°17' E 004°19'1 2.0
2017-Aug-09 07:31N 51°17' E 004°20'0 0.0
2017-Aug-09 07:00N 51°17' E 004°20'0 0.3
2017-Aug-09 06:30N 51°17' E 004°20'2 3.7
2017-Aug-09 06:00N 51°15' E 004°22'0 0.5
2017-Aug-09 05:28N 51°15' E 004°21'0 0.0
2017-Aug-09 04:58N 51°15' E 004°21'0 0.0
2017-Aug-09 04:28N 51°15' E 004°21'0 0.0
2017-Aug-09 03:58N 51°15' E 004°21'0 0.0
2017-Aug-09 03:28N 51°15' E 004°21'0 0.0
2017-Aug-09 02:58N 51°15' E 004°21'0 0.0
2017-Aug-09 02:28N 51°15' E 004°21'0 0.0
2017-Aug-09 01:58N 51°15' E 004°21'0 0.0
2017-Aug-09 01:25N 51°15' E 004°21'0 0.0
2017-Aug-09 00:58N 51°15' E 004°21'0 0.0
2017-Aug-09 00:28N 51°15' E 004°21'0 0.0
2017-Aug-08 23:55N 51°15' E 004°21'0 0.0
2017-Aug-08 23:25N 51°15' E 004°21'0 0.0
2017-Aug-08 22:55N 51°15' E 004°21'0 0.0
2017-Aug-08 22:28N 51°15' E 004°21'0 0.0
2017-Aug-08 21:58N 51°15' E 004°21'0 0.0
2017-Aug-08 21:28N 51°15' E 004°21'0 0.0
2017-Aug-08 20:58N 51°15' E 004°21'0 0.0
2017-Aug-08 20:28N 51°15' E 004°21'0 0.0
2017-Aug-08 19:52N 51°15' E 004°21'0 0.0
2017-Aug-08 19:28N 51°15' E 004°21'0 0.0
2017-Aug-08 18:58N 51°15' E 004°21'0 0.0
2017-Aug-08 18:28N 51°15' E 004°21'0 0.0
2017-Aug-08 17:58N 51°15' E 004°21'0 0.0
2017-Aug-08 17:25N 51°15' E 004°21'0 0.0
2017-Aug-08 16:58N 51°15' E 004°21'0 0.0
2017-Aug-08 16:28N 51°15' E 004°21'0 0.0
2017-Aug-08 15:58N 51°15' E 004°21'0 0.0
2017-Aug-08 15:28N 51°15' E 004°21'0 0.0
2017-Aug-08 14:58N 51°15' E 004°21'0 0.0
2017-Aug-08 14:28N 51°15' E 004°21'0 0.0
2017-Aug-08 13:55N 51°15' E 004°21'0 0.0
2017-Aug-08 13:28N 51°15' E 004°21'0 0.0
2017-Aug-08 12:58N 51°15' E 004°21'0 0.0
2017-Aug-08 12:28N 51°15' E 004°21'0 0.0
2017-Aug-08 11:55N 51°15' E 004°21'0 0.0
2017-Aug-08 11:25N 51°15' E 004°21'0 0.0
2017-Aug-08 10:58N 51°15' E 004°21'0 0.0
2017-Aug-08 10:28N 51°15' E 004°21'0 0.0
2017-Aug-08 09:58N 51°15' E 004°21'0 0.0
2017-Aug-08 09:28N 51°15' E 004°21'0 0.0
2017-Aug-08 08:55N 51°15' E 004°21'0 0.0
2017-Aug-08 08:25N 51°15' E 004°21'0 0.0
2017-Aug-08 07:52N 51°15' E 004°21'0 0.0
2017-Aug-08 07:28N 51°15' E 004°21'0 0.0
2017-Aug-08 06:58N 51°15' E 004°21'0 0.0
2017-Aug-08 06:22N 51°15' E 004°21'0 0.0
2017-Aug-08 05:55N 51°15' E 004°21'0 0.0
2017-Aug-08 05:28N 51°15' E 004°21'0 0.0
2017-Aug-08 04:55N 51°15' E 004°21'0 0.2
2017-Aug-08 04:28N 51°15' E 004°21'1 2.8
2017-Aug-08 04:00N 51°16' E 004°21'  
Track history (hours):
 
Tides and Currents Weather Stations Pressure Air Temp Water Temp Dewpoint Dewpoint Depression Visibility Wind Speed Wind Dir Waves Ship Positions

Othello

Last reported at 2017-Aug-16 05:54 UTC. Time now 2017-Aug-17 03:41 UTC.
Position N 41°06' E 001°14'.

Length 104 m; draft 7.7 m.

Type: Tanker. MMSI: 253279000.

Date/timePositionNaut miles runAvg speedWind from/ knotsBaromVisibWave heightAir tempDewpointWater temp
2017-Aug-16 05:54N 41°06' E 001°14'0 0.8
2017-Aug-16 05:25N 41°06' E 001°13'2 4.9
2017-Aug-16 05:00N 41°04' E 001°12'5 9.8
2017-Aug-16 04:30N 40°59' E 001°10'611.3
2017-Aug-16 04:00N 40°54' E 001°09'611.1
2017-Aug-16 03:29N 40°48' E 001°07'611.4
2017-Aug-16 02:59N 40°42' E 001°05'611.6
2017-Aug-16 02:29N 40°37' E 001°03'611.4
2017-Aug-16 02:00N 40°31' E 001°02'611.6
2017-Aug-16 01:30N 40°26' E 001°00'611.6
2017-Aug-16 01:00N 40°20' E 000°59'611.6
2017-Aug-16 00:30N 40°14' E 000°58'611.6
2017-Aug-16 00:00N 40°09' E 000°56'611.6
2017-Aug-15 23:30N 40°03' E 000°55'611.5
2017-Aug-15 23:00N 39°57' E 000°54'611.4
2017-Aug-15 22:30N 39°51' E 000°53'611.4
2017-Aug-15 22:00N 39°46' E 000°50'611.3
2017-Aug-15 21:30N 39°41' E 000°48'1411.1
2017-Aug-15 20:15N 39°27' E 000°44'1410.5
2017-Aug-15 18:55N 39°14' E 000°39'511.2
2017-Aug-15 18:30N 39°09' E 000°38'611.0
2017-Aug-15 18:00N 39°04' E 000°36'9211.7
2017-Aug-15 10:07N 37°44' W 000°22'111.6
2017-Aug-15 10:00N 37°43' W 000°22'612.4
2017-Aug-15 09:30N 37°37' W 000°26'612.7
2017-Aug-15 09:00N 37°32' W 000°31'813.0
2017-Aug-15 08:25N 37°27' W 000°38'513.4
2017-Aug-15 08:00N 37°24' W 000°43'712.8
2017-Aug-15 07:28N 37°19' W 000°50'612.9
2017-Aug-15 06:59N 37°15' W 000°56'613.0
2017-Aug-15 06:29N 37°11' W 001°02'21511.7
2017-Aug-14 12:02N 35°56' W 005°13'011.8
2017-Aug-14 12:00N 35°56' W 005°14'4 8.6
2017-Aug-14 11:30N 35°54' W 005°19'1 1.5
2017-Aug-14 10:59N 35°54' W 005°19'0 0.0
2017-Aug-14 10:29N 35°54' W 005°19'0 0.0
2017-Aug-14 09:59N 35°54' W 005°19'0 0.0
2017-Aug-14 09:29N 35°54' W 005°19'0 0.0
2017-Aug-14 08:59N 35°54' W 005°19'0 0.0
2017-Aug-14 08:29N 35°54' W 005°19'0 0.0
2017-Aug-14 07:59N 35°54' W 005°19'0 0.0
2017-Aug-14 07:29N 35°54' W 005°19'0 0.0
2017-Aug-14 07:01N 35°54' W 005°19'0 0.0
2017-Aug-14 06:30N 35°54' W 005°19'0 0.8
2017-Aug-14 06:00N 35°54' W 005°19'1 2.9
2017-Aug-14 05:30N 35°55' W 005°20'510.4
2017-Aug-14 05:00N 35°58' W 005°25'712.5
2017-Aug-14 04:27N 35°56' W 005°33'711.3
2017-Aug-14 03:51N 35°55' W 005°42'310.1
2017-Aug-14 03:31N 35°54' W 005°46'511.0
2017-Aug-14 03:01N 35°54' W 005°53'12611.4
2017-Aug-13 15:56N 36°18' W 008°26'3411.6
2017-Aug-13 12:59N 36°27' W 009°07'611.7
2017-Aug-13 12:27N 36°29' W 009°14'511.5
2017-Aug-13 11:59N 36°31' W 009°20'611.8
2017-Aug-13 11:28N 36°35' W 009°26'611.7
2017-Aug-13 10:55N 36°40' W 009°31'511.6
2017-Aug-13 10:30N 36°43' W 009°35'611.1
2017-Aug-13 09:59N 36°49' W 009°38'611.8
2017-Aug-13 09:30N 36°54' W 009°39'611.9
2017-Aug-13 08:59N 37°00' W 009°41'611.8
2017-Aug-13 08:30N 37°06' W 009°43'611.3
2017-Aug-13 08:00N 37°12' W 009°44'611.4
2017-Aug-13 07:30N 37°17' W 009°46'611.7
2017-Aug-13 07:00N 37°22' W 009°49'611.3
2017-Aug-13 06:30N 37°28' W 009°51'611.6
2017-Aug-13 06:00N 37°33' W 009°52'611.8
2017-Aug-13 05:30N 37°39' W 009°53'611.8
2017-Aug-13 05:00N 37°45' W 009°55'611.8
2017-Aug-13 04:30N 37°51' W 009°56'611.7
2017-Aug-13 04:00N 37°57' W 009°58'611.4
2017-Aug-13 03:30N 38°02' W 009°59'611.3
2017-Aug-13 03:00N 38°08' W 010°01'611.4
2017-Aug-13 02:30N 38°13' W 010°03'611.3
2017-Aug-13 02:00N 38°19' W 010°05'611.7
2017-Aug-13 01:30N 38°24' W 010°07'612.1
2017-Aug-13 01:00N 38°30' W 010°08'611.4
2017-Aug-13 00:30N 38°36' W 010°10'611.6
2017-Aug-13 00:00N 38°42' W 010°11'612.0
2017-Aug-12 23:30N 38°48' W 010°11'611.9
2017-Aug-12 23:00N 38°54' W 010°11'612.4
2017-Aug-12 22:30N 38°60' W 010°11'612.1
2017-Aug-12 22:00N 39°06' W 010°11'612.8
2017-Aug-12 21:30N 39°12' W 010°11'612.3
2017-Aug-12 21:00N 39°18' W 010°11'612.0
2017-Aug-12 20:30N 39°24' W 010°11'612.1
2017-Aug-12 20:01N 39°30' W 010°11'612.2
2017-Aug-12 19:30N 39°36' W 010°11'612.5
2017-Aug-12 19:00N 39°43' W 010°11'612.4
2017-Aug-12 18:30N 39°49' W 010°12'612.3
2017-Aug-12 18:00N 39°55' W 010°12'612.2
2017-Aug-12 17:30N 40°01' W 010°11'611.8
2017-Aug-12 17:00N 40°07' W 010°11'612.0
2017-Aug-12 16:30N 40°13' W 010°11'611.9
2017-Aug-12 16:00N 40°19' W 010°11'612.1
2017-Aug-12 15:30N 40°25' W 010°12'612.2
2017-Aug-12 15:00N 40°31' W 010°12'612.2
2017-Aug-12 14:30N 40°37' W 010°12'612.3
2017-Aug-12 14:00N 40°43' W 010°11'612.4
2017-Aug-12 13:30N 40°50' W 010°11'612.2
2017-Aug-12 13:00N 40°56' W 010°11'612.0
2017-Aug-12 12:30N 41°02' W 010°12'612.2
2017-Aug-12 12:00N 41°08' W 010°12'612.1
2017-Aug-12 11:31N 41°14' W 010°12'612.2
2017-Aug-12 11:00N 41°20' W 010°11'912.1
2017-Aug-12 10:16N 41°29' W 010°11'312.3
2017-Aug-12 09:59N 41°32' W 010°11'612.5
2017-Aug-12 09:29N 41°39' W 010°11'1012.3
2017-Aug-12 08:42N 41°48' W 010°12'412.1
2017-Aug-12 08:21N 41°52' W 010°12'412.5
2017-Aug-12 08:00N 41°57' W 010°12'612.5
2017-Aug-12 07:30N 42°03' W 010°12'812.2
2017-Aug-12 06:52N 42°11' W 010°12'511.8
2017-Aug-12 06:25N 42°16' W 010°12'512.2
2017-Aug-12 06:00N 42°21' W 010°12'50012.2
2017-Aug-10 13:06N 49°32' W 004°08'214.3
2017-Aug-10 12:59N 49°33' W 004°05'714.0
2017-Aug-10 12:30N 49°36' W 003°56'714.0
2017-Aug-10 12:00N 49°40' W 003°47'713.5
2017-Aug-10 11:30N 49°43' W 003°38'713.0
2017-Aug-10 11:00N 49°47' W 003°29'612.4
2017-Aug-10 10:30N 49°50' W 003°21'612.0
2017-Aug-10 10:00N 49°53' W 003°13'611.5
2017-Aug-10 09:30N 49°55' W 003°05'611.1
2017-Aug-10 09:00N 49°58' W 002°58'510.7
2017-Aug-10 08:30N 50°00' W 002°50'510.7
2017-Aug-10 08:00N 50°02' W 002°42'2811.6
2017-Aug-10 05:36N 50°09' W 002°01'113.6
2017-Aug-10 05:31N 50°10' W 001°59'714.1
2017-Aug-10 05:00N 50°12' W 001°48'714.8
2017-Aug-10 04:30N 50°14' W 001°37'815.2
2017-Aug-10 04:00N 50°16' W 001°25'3915.1
2017-Aug-10 01:26N 50°26' W 000°27'613.3
2017-Aug-10 01:00N 50°27' W 000°18'612.8
2017-Aug-10 00:30N 50°29' W 000°09'612.1
2017-Aug-10 00:00N 50°30' E 000°01'611.7
2017-Aug-09 23:30N 50°32' E 000°10'611.1
2017-Aug-09 23:00N 50°33' E 000°18'510.7
2017-Aug-09 22:30N 50°35' E 000°26'510.7
2017-Aug-09 22:00N 50°36' E 000°34'611.0
2017-Aug-09 21:30N 50°40' E 000°41'611.7
2017-Aug-09 21:00N 50°44' E 000°48'612.5
2017-Aug-09 20:30N 50°48' E 000°55'712.4
2017-Aug-09 19:54N 50°53' E 001°04'512.1
2017-Aug-09 19:28N 50°55' E 001°12'612.9
2017-Aug-09 19:00N 50°59' E 001°18'713.4
2017-Aug-09 18:31N 51°04' E 001°26'714.3
2017-Aug-09 18:00N 51°08' E 001°35'713.3
2017-Aug-09 17:30N 51°12' E 001°44'612.6
2017-Aug-09 17:00N 51°17' E 001°50'612.2
2017-Aug-09 16:30N 51°22' E 001°55'510.1
2017-Aug-09 16:00N 51°25' E 002°02'713.1
2017-Aug-09 15:30N 51°23' E 002°11'611.4
2017-Aug-09 15:00N 51°21' E 002°20'510.9
2017-Aug-09 14:30N 51°22' E 002°28'510.9
2017-Aug-09 14:01N 51°23' E 002°37'510.1
2017-Aug-09 13:30N 51°22' E 002°45'611.3
2017-Aug-09 13:00N 51°23' E 002°54'612.4
2017-Aug-09 12:30N 51°25' E 003°03'612.3
2017-Aug-09 12:00N 51°25' E 003°13'612.5
2017-Aug-09 11:30N 51°25' E 003°23'612.7
2017-Aug-09 11:00N 51°26' E 003°33'510.2
2017-Aug-09 10:30N 51°26' E 003°41'612.8
2017-Aug-09 10:00N 51°21' E 003°48'612.2
2017-Aug-09 09:30N 51°24' E 003°57'3 6.7
2017-Aug-09 09:00N 51°23' E 004°02'613.0
2017-Aug-09 08:30N 51°23' E 004°13'713.8
2017-Aug-09 08:00N 51°17' E 004°19'1 2.0
2017-Aug-09 07:31N 51°17' E 004°20'0 0.0
2017-Aug-09 07:00N 51°17' E 004°20'0 0.3
2017-Aug-09 06:30N 51°17' E 004°20'2 3.7
2017-Aug-09 06:00N 51°15' E 004°22'0 0.5
2017-Aug-09 05:28N 51°15' E 004°21'0 0.0
2017-Aug-09 04:58N 51°15' E 004°21'0 0.0
2017-Aug-09 04:28N 51°15' E 004°21'0 0.0
2017-Aug-09 03:58N 51°15' E 004°21'0 0.0
2017-Aug-09 03:28N 51°15' E 004°21'0 0.0
2017-Aug-09 02:58N 51°15' E 004°21'0 0.0
2017-Aug-09 02:28N 51°15' E 004°21'0 0.0
2017-Aug-09 01:58N 51°15' E 004°21'0 0.0
2017-Aug-09 01:25N 51°15' E 004°21'0 0.0
2017-Aug-09 00:58N 51°15' E 004°21'0 0.0
2017-Aug-09 00:28N 51°15' E 004°21'0 0.0
2017-Aug-08 23:55N 51°15' E 004°21'0 0.0
2017-Aug-08 23:25N 51°15' E 004°21'0 0.0
2017-Aug-08 22:55N 51°15' E 004°21'0 0.0
2017-Aug-08 22:28N 51°15' E 004°21'0 0.0
2017-Aug-08 21:58N 51°15' E 004°21'0 0.0
2017-Aug-08 21:28N 51°15' E 004°21'0 0.0
2017-Aug-08 20:58N 51°15' E 004°21'0 0.0
2017-Aug-08 20:28N 51°15' E 004°21'0 0.0
2017-Aug-08 19:52N 51°15' E 004°21'0 0.0
2017-Aug-08 19:28N 51°15' E 004°21'0 0.0
2017-Aug-08 18:58N 51°15' E 004°21'0 0.0
2017-Aug-08 18:28N 51°15' E 004°21'0 0.0
2017-Aug-08 17:58N 51°15' E 004°21'0 0.0
2017-Aug-08 17:25N 51°15' E 004°21'0 0.0
2017-Aug-08 16:58N 51°15' E 004°21'0 0.0
2017-Aug-08 16:28N 51°15' E 004°21'0 0.0
2017-Aug-08 15:58N 51°15' E 004°21'0 0.0
2017-Aug-08 15:28N 51°15' E 004°21'0 0.0
2017-Aug-08 14:58N 51°15' E 004°21'0 0.0
2017-Aug-08 14:28N 51°15' E 004°21'0 0.0
2017-Aug-08 13:55N 51°15' E 004°21'0 0.0
2017-Aug-08 13:28N 51°15' E 004°21'0 0.0
2017-Aug-08 12:58N 51°15' E 004°21'0 0.0
2017-Aug-08 12:28N 51°15' E 004°21'0 0.0
2017-Aug-08 11:55N 51°15' E 004°21'0 0.0
2017-Aug-08 11:25N 51°15' E 004°21'0 0.0
2017-Aug-08 10:58N 51°15' E 004°21'0 0.0
2017-Aug-08 10:28N 51°15' E 004°21'0 0.0
2017-Aug-08 09:58N 51°15' E 004°21'0 0.0
2017-Aug-08 09:28N 51°15' E 004°21'0 0.0
2017-Aug-08 08:55N 51°15' E 004°21'0 0.0
2017-Aug-08 08:25N 51°15' E 004°21'0 0.0
2017-Aug-08 07:52N 51°15' E 004°21'0 0.0
2017-Aug-08 07:28N 51°15' E 004°21'0 0.0
2017-Aug-08 06:58N 51°15' E 004°21'0 0.0
2017-Aug-08 06:22N 51°15' E 004°21'0 0.0
2017-Aug-08 05:55N 51°15' E 004°21'0 0.0
2017-Aug-08 05:28N 51°15' E 004°21'0 0.0
2017-Aug-08 04:55N 51°15' E 004°21'0 0.2
2017-Aug-08 04:28N 51°15' E 004°21'1 2.8
2017-Aug-08 04:00N 51°16' E 004°21'  

Dump ship's entire track history